Raugust, Washington
Current Conditions -  °F | °C
As of 12:52 AM on Monday 24 Nov 2014 (Local Time) from KMWH Reporting Station
Clear Clear  
Wind Chill: 27°   Ceiling: Unl
Heat Index: 32°   Visibility: 10mi
Dew Point: 27°   Wind: 5mph
Humidity: 82%   Direction: 200°SSW
Pressure: 30.26"   Gusts: NA
Location:  47.1758°N, 119.289°W
Report Text: KMWH 240852Z AUTO 20004KT 10SM CLR 00/M03 A3026 RMK AO2 SLP255 T00001028 53027
Loading
Personal Weather Stations






























Interactive Weather Map New forecast layout! Learn more

10-Day Weather Forecast

Advertisements
Track Severe Weather on mobile